Weather at Ingham Ranch Landing Strip

Public forecast

Using degrees Fahrenheit for public forecast. Weather courtesy of forecast.io.

Closest aviation weather report (METAR) to Ingham Ranch Landing Strip

Closest report is Sonora Municipal Airport, 9.0 nm (16.7 km) E. Retrieved 2022/07/04 15:55 UTC (14 minutes ago):

KSOA 041555Z AUTO 18009G14KT 10SM CLR 29/18 A3011 RMK AO2

Closest aviation forecast (TAF) to Ingham Ranch Landing Strip

Closest forecast is Sonora Municipal Airport, 9.0 nm (16.7 km) E. Retrieved 2022/07/04 12:34 UTC (4 hours ago):

TAF KSOA 041132Z 0412/0512 16009KT P6SM SCT250 FM041500 17012G20KT P6SM FEW250